Salem, OR (97303)

8:27 AM PST on December 03, 2016 (GMT -0800)
Northridge Park | | Change Station

Elev 141 ft 45.00 °N, 123.01 °W | Updated 2 seconds ago

Overcast
Overcast
45.0 °F
Feels Like 45 °F
N
0.0
Wind Variable Wind from SSW
Gusts 3.0 mph

Today
High -- | Low -- °F
--% Chance of Precip.
Yesterday
High -- | Low -- °F
Precip. -- in
Pressure 30.39 in
Visibility 10.0 miles
Clouds Few 3200 ft
Overcast 6000 ft
Windchill 45 °F
Dew Point 44 °F
Humidity 96%
Rainfall 0.00 in
Snow Depth Not available.
7:32 AM 4:31 PM
Waxing Crescent, 15% visible
METAR KSLE 031556Z 17004KT 10SM FEW032 OVC060 07/06 A3039 RMK AO2 SLP290 T00720056
Pressure 30.39 in
Visibility 10.0 miles
Clouds Few 3200 ft
Overcast 6000 ft
Windchill 45 °F
Dew Point 44 °F
Humidity 96%
Rainfall 0.00 in
Snow Depth Not available.
7:32 AM 4:31 PM
Waxing Crescent, 15% visible
METAR KSLE 031556Z 17004KT 10SM FEW032 OVC060 07/06 A3039 RMK AO2 SLP290 T00720056

10-Day Weather Forecast

Almanac

Astronomy

Dec. 03, 2016 Rise Set
Actual Time
Civil Twilight
Nautical Twilight
Astronomical Twilight
Moon
Length of Visible Light
Length of Day
Tomorrow will be .
, % of the Moon is Illuminated

Today's Extremes

State Highs State Lows

Community

WunderPhotos

Upload Photos

1,955,439 photos uploaded!

WunderBlog® & News

Nearby

Air Quality

  Air Quality AQ Index Pollutant
Not available.

Snow Depth

Station Depth Elevation

Earthquake Activity

City Distance Mag. Time & Date
Minimum magnitude displayed is 2.5.

Coastal Water Temperatures

Place Temperature

Stations

Nearby Weather Stations

Station Location Temp. Windchill Dew Point Humidity Wind Precip. Elev Updated Type
                   

Watches & Warnings

There are currently no watches in effect.